Time;durP1;ratioP1;P1;durP2;ratioP2;P2;SDS_P1;SDS_P2;PMS_P1;PMS_P2;Temp;Humidity;BMP_temperature;BMP_pressure;BME280_temperature;BME280_humidity;BME280_pressure;Samples;Min_cycle;Max_cycle;Signal;HPM_P1;HPM_P2
2021/12/03 00:01:01;;;;;;;11.63;10.83;;;;;;;6.21;70.85;91768.41;5072149;28;20236;-74
2021/12/03 00:03:26;;;;;;;12.40;11.50;;;;;;;5.80;72.26;91749.78;5069270;28;20277;-74
2021/12/03 00:05:55;;;;;;;12.63;11.63;;;;;;;6.25;70.97;91777.19;5070930;28;20197;-75
2021/12/03 00:08:21;;;;;;;12.63;11.73;;;;;;;5.88;72.25;91753.66;5071485;28;20213;-75
2021/12/03 00:10:54;;;;;;;13.27;12.20;;;;;;;5.51;73.95;91776.66;5071341;28;20285;-75
2021/12/03 00:13:20;;;;;;;12.10;11.43;;;;;;;5.91;73.77;91753.88;5071761;28;20304;-74
2021/12/03 00:15:46;;;;;;;12.73;11.90;;;;;;;6.06;72.44;91750.38;5070895;28;20668;-75
2021/12/03 00:18:11;;;;;;;13.90;12.90;;;;;;;5.61;74.38;91779.94;5070166;28;20221;-74
2021/12/03 00:20:37;;;;;;;11.23;10.43;;;;;;;5.73;73.78;91745.94;5071126;28;20182;-75
2021/12/03 00:23:04;;;;;;;11.50;10.77;;;;;;;5.83;72.83;91713.03;5069192;28;20237;-74
2021/12/03 00:25:30;;;;;;;12.13;11.23;;;;;;;6.62;70.48;91777.34;5070115;28;21068;-74
2021/12/03 00:27:56;;;;;;;10.67;9.87;;;;;;;6.69;70.67;91775.22;5071317;28;20224;-75
2021/12/03 00:30:21;;;;;;;11.80;11.10;;;;;;;6.51;70.90;91760.34;5070808;28;20189;-74
2021/12/03 00:32:48;;;;;;;12.80;12.00;;;;;;;6.37;71.41;91801.69;5070505;28;20221;-75
2021/12/03 00:35:17;;;;;;;12.00;11.30;;;;;;;6.83;69.63;91764.94;5070475;28;20198;-74
2021/12/03 00:37:43;;;;;;;9.70;9.07;;;;;;;7.23;67.73;91775.66;5069737;28;20247;-74
2021/12/03 00:40:10;;;;;;;11.00;10.50;;;;;;;7.26;67.13;91748.34;5071114;28;20190;-73
2021/12/03 00:42:37;;;;;;;12.20;11.43;;;;;;;7.64;65.95;91761.06;5069629;28;20438;-75
2021/12/03 00:45:05;;;;;;;10.93;10.23;;;;;;;7.58;66.07;91745.84;5070207;28;20690;-74
2021/12/03 00:47:31;;;;;;;11.83;11.13;;;;;;;7.54;66.17;91756.03;5070653;28;20225;-75
2021/12/03 00:49:56;;;;;;;11.07;10.57;;;;;;;7.53;66.01;91733.69;5070082;28;20730;-74
2021/12/03 00:52:22;;;;;;;11.30;10.70;;;;;;;8.01;64.83;91752.50;5069474;28;21755;-74
2021/12/03 00:54:49;;;;;;;11.33;10.60;;;;;;;7.81;64.87;91758.00;5071088;28;20225;-74
2021/12/03 00:57:15;;;;;;;11.27;10.57;;;;;;;7.57;66.45;91776.25;5068802;28;20233;-74
2021/12/03 00:59:40;;;;;;;11.77;11.07;;;;;;;7.19;68.44;91766.84;5070956;28;20272;-74
2021/12/03 01:02:06;;;;;;;9.83;9.20;;;;;;;7.47;67.36;91765.97;5068269;28;20233;-74
2021/12/03 01:04:32;;;;;;;10.40;9.47;;;;;;;8.16;65.41;91742.63;5070289;28;20231;-74
2021/12/03 01:06:57;;;;;;;11.37;10.30;;;;;;;8.55;63.50;91741.47;5070608;28;20236;-74
2021/12/03 01:09:23;;;;;;;10.43;9.90;;;;;;;8.39;64.24;91795.59;5069051;28;20200;-74
2021/12/03 01:11:49;;;;;;;13.33;12.67;;;;;;;8.40;63.26;91687.13;5069978;28;20232;-75
2021/12/03 01:14:15;;;;;;;10.87;10.17;;;;;;;8.26;63.50;91775.53;5070068;28;20193;-75
2021/12/03 01:16:41;;;;;;;11.07;10.20;;;;;;;8.05;64.89;91782.81;5068579;28;20233;-74
2021/12/03 01:19:07;;;;;;;11.40;10.60;;;;;;;7.85;65.01;91736.34;5071069;28;20196;-75
2021/12/03 01:21:32;;;;;;;10.07;9.27;;;;;;;7.22;67.93;91781.88;5068009;28;20253;-74
2021/12/03 01:23:58;;;;;;;11.63;10.93;;;;;;;7.89;65.03;91719.13;5069420;28;20662;-75
2021/12/03 01:26:24;;;;;;;11.40;10.57;;;;;;;7.61;66.42;91782.41;5069764;28;20225;-75
2021/12/03 01:28:50;;;;;;;11.23;10.43;;;;;;;7.46;67.26;91781.84;5070571;28;20190;-75
2021/12/03 01:31:17;;;;;;;11.73;11.03;;;;;;;7.51;66.59;91772.16;5069728;28;20204;-74
2021/12/03 01:33:45;;;;;;;10.83;10.13;;;;;;;7.94;65.12;91733.88;5070232;28;20201;-75
2021/12/03 01:36:10;;;;;;;11.30;10.70;;;;;;;7.96;64.68;91753.34;5068248;28;20194;-75
2021/12/03 01:38:36;;;;;;;11.43;10.60;;;;;;;8.09;63.27;91742.22;5070674;28;20232;-73
2021/12/03 01:41:02;;;;;;;10.60;9.80;;;;;;;8.23;63.47;91749.31;5068877;28;20193;-75
2021/12/03 01:43:28;;;;;;;12.07;11.57;;;;;;;8.51;63.79;91730.13;5068113;28;20225;-74
2021/12/03 01:45:59;;;;;;;10.43;9.83;;;;;;;8.69;62.20;91724.06;5070026;28;20229;-76
2021/12/03 01:48:25;;;;;;;11.70;10.23;;;;;;;8.40;64.23;91732.13;5067958;28;20276;-75
2021/12/03 01:50:51;;;;;;;10.67;9.80;;;;;;;8.80;63.38;91725.41;5070686;28;20212;-74
2021/12/03 01:53:19;;;;;;;10.23;9.67;;;;;;;9.25;61.21;91716.72;5069525;28;20221;-74
2021/12/03 01:55:47;;;;;;;9.77;9.07;;;;;;;8.98;61.98;91727.91;5068178;28;20231;-72
2021/12/03 01:58:14;;;;;;;11.73;9.97;;;;;;;9.01;61.88;91745.56;5069617;28;20233;-74
2021/12/03 02:00:42;;;;;;;11.87;11.03;;;;;;;9.20;60.94;91690.78;5068458;28;20233;-75
2021/12/03 02:03:08;;;;;;;9.57;9.07;;;;;;;8.89;61.54;91713.28;5067855;28;20229;-74
2021/12/03 02:05:37;;;;;;;10.37;9.77;;;;;;;9.08;61.12;91706.91;5068153;28;20219;-75
2021/12/03 02:08:03;;;;;;;10.50;10.00;;;;;;;8.97;62.02;91736.81;5067823;28;20225;-75
2021/12/03 02:10:29;;;;;;;9.87;9.50;;;;;;;9.10;60.62;91677.97;5068529;28;20203;-75
2021/12/03 02:12:55;;;;;;;9.23;8.83;;;;;;;9.42;60.07;91741.09;5067857;28;20225;-74
2021/12/03 02:15:21;;;;;;;10.73;10.03;;;;;;;9.43;60.25;91729.63;5068449;28;20188;-75
2021/12/03 02:17:47;;;;;;;8.13;7.83;;;;;;;8.98;62.19;91727.91;5068795;28;20221;-74
2021/12/03 02:20:14;;;;;;;8.33;8.03;;;;;;;9.51;60.22;91720.34;5068479;28;20189;-75
2021/12/03 02:22:40;;;;;;;8.93;8.43;;;;;;;9.80;58.86;91718.16;5067796;28;20226;-75
2021/12/03 02:25:09;;;;;;;9.43;8.93;;;;;;;9.65;58.48;91687.97;5069609;28;20202;-75
2021/12/03 02:27:35;;;;;;;9.27;8.87;;;;;;;9.26;60.38;91713.81;5067874;28;20244;-74
2021/12/03 02:30:01;;;;;;;9.00;8.60;;;;;;;9.22;61.00;91680.84;5069252;28;20186;-75
2021/12/03 02:32:26;;;;;;;9.07;8.77;;;;;;;8.91;61.61;91685.91;5069283;28;20232;-75
2021/12/03 02:34:52;;;;;;;9.13;8.33;;;;;;;8.81;62.00;91685.34;5068538;28;20193;-75
2021/12/03 02:37:17;;;;;;;8.70;8.20;;;;;;;9.21;61.52;91713.91;5069612;28;20226;-75
2021/12/03 02:39:43;;;;;;;9.37;8.77;;;;;;;8.94;62.39;91726.19;5069100;28;20204;-75
2021/12/03 02:42:09;;;;;;;9.20;8.80;;;;;;;9.02;61.31;91712.50;5068190;28;20259;-75
2021/12/03 02:44:34;;;;;;;9.93;9.37;;;;;;;9.20;60.78;91703.78;5069617;28;20212;-75
2021/12/03 02:47:00;;;;;;;8.80;8.30;;;;;;;8.67;62.90;91726.19;5068849;28;20230;-75
2021/12/03 02:49:25;;;;;;;9.23;8.83;;;;;;;8.90;61.78;91717.44;5074523;28;20165;-75
2021/12/03 02:51:51;;;;;;;9.90;9.20;;;;;;;9.06;61.53;91718.66;5073119;28;20225;-74
2021/12/03 02:54:16;;;;;;;10.27;9.73;;;;;;;8.32;63.93;91695.59;5071062;28;20189;-74
2021/12/03 02:56:42;;;;;;;9.30;8.63;;;;;;;8.79;67.36;91713.47;5071928;28;20232;-75
2021/12/03 02:59:07;;;;;;;9.80;9.20;;;;;;;8.84;62.51;91721.94;5072555;28;20253;-73
2021/12/03 03:01:33;;;;;;;10.23;9.63;;;;;;;8.70;62.86;91720.41;5070616;28;20292;-75
2021/12/03 03:03:58;;;;;;;10.27;9.67;;;;;;;8.73;63.09;91728.41;5073982;28;20193;-75
2021/12/03 03:06:24;;;;;;;9.93;9.20;;;;;;;8.51;63.42;91714.50;5071372;28;20689;-75
2021/12/03 03:08:49;;;;;;;10.27;9.50;;;;;;;8.64;63.04;91724.94;5072424;28;20264;-74
2021/12/03 03:11:16;;;;;;;11.17;10.47;;;;;;;8.79;62.40;91729.09;5072709;28;20205;-75
2021/12/03 03:13:43;;;;;;;9.93;9.37;;;;;;;8.73;62.64;91740.66;5071696;28;20193;-78
2021/12/03 03:16:09;;;;;;;10.33;9.63;;;;;;;8.90;62.27;91733.81;5072805;28;20181;-78
2021/12/03 03:18:35;;;;;;;9.60;9.10;;;;;;;9.04;61.57;91739.78;5071742;28;20249;-78
2021/12/03 03:21:04;;;;;;;10.43;9.83;;;;;;;8.77;62.30;91702.56;5070966;28;20211;-78
2021/12/03 03:23:32;;;;;;;9.30;8.90;;;;;;;8.46;63.10;91723.19;5072118;28;20221;-78
2021/12/03 03:25:58;;;;;;;9.80;9.20;;;;;;;8.79;62.34;91688.25;5071291;28;20189;-79
2021/12/03 03:28:24;;;;;;;9.97;9.27;;;;;;;8.96;61.38;91693.63;5071181;28;20222;-79
2021/12/03 03:30:52;;;;;;;9.70;9.20;;;;;;;9.06;61.12;91703.81;5071785;28;20192;-78
2021/12/03 03:33:19;;;;;;;10.70;10.07;;;;;;;8.81;62.39;91690.56;5070305;28;20231;-78
2021/12/03 03:35:45;;;;;;;10.33;9.53;;;;;;;9.00;61.80;91725.81;5072704;28;20217;-78
2021/12/03 03:38:11;;;;;;;9.30;8.90;;;;;;;8.78;62.98;91735.38;5071340;28;20225;-78
2021/12/03 03:40:38;;;;;;;10.40;9.57;;;;;;;8.36;63.40;91723.34;5071890;28;20194;-78
2021/12/03 03:43:06;;;;;;;9.30;8.80;;;;;;;8.43;62.55;91691.75;5071660;28;20217;-78
2021/12/03 03:45:32;;;;;;;10.03;9.53;;;;;;;8.33;64.08;91725.75;5071757;28;20189;-78
2021/12/03 03:47:59;;;;;;;10.57;9.77;;;;;;;8.14;64.04;91741.34;5070444;28;20251;-78
2021/12/03 03:50:25;;;;;;;11.70;10.57;;;;;;;8.02;64.49;91728.81;5072677;28;20232;-78
2021/12/03 03:52:53;;;;;;;10.70;10.17;;;;;;;7.91;64.44;91713.66;5069705;28;20835;-78
2021/12/03 03:55:20;;;;;;;10.83;10.33;;;;;;;8.01;64.61;91719.50;5071300;28;20170;-78
2021/12/03 03:57:47;;;;;;;9.70;9.17;;;;;;;7.97;65.39;91754.88;5071006;28;20225;-79
2021/12/03 04:00:22;;;;;;;9.93;9.40;;;;;;;8.41;63.04;91748.47;5068375;28;20233;-78
2021/12/03 04:02:48;;;;;;;9.50;8.97;;;;;;;8.41;63.43;91732.88;5071385;28;20240;-78
2021/12/03 04:05:14;;;;;;;9.33;8.70;;;;;;;8.14;64.44;91744.72;5071769;28;20197;-78
2021/12/03 04:07:40;;;;;;;10.50;9.90;;;;;;;8.43;64.04;91733.38;5070576;28;20228;-78
2021/12/03 04:10:07;;;;;;;10.30;9.83;;;;;;;8.20;64.11;91748.78;5072291;28;20189;-78
2021/12/03 04:12:33;;;;;;;11.33;10.50;;;;;;;8.26;63.97;91746.16;5070247;28;20296;-78
2021/12/03 04:14:59;;;;;;;10.60;9.90;;;;;;;8.64;62.77;91742.38;5072043;28;20919;-78
2021/12/03 04:17:24;;;;;;;10.37;9.77;;;;;;;8.59;63.25;91739.88;5070371;28;20229;-78
2021/12/03 04:19:50;;;;;;;11.10;10.20;;;;;;;8.58;63.63;91738.31;5070094;28;20187;-78
2021/12/03 04:22:18;;;;;;;9.80;9.30;;;;;;;8.74;62.81;91727.34;5071093;28;20297;-78
2021/12/03 04:24:44;;;;;;;9.83;9.17;;;;;;;8.53;62.88;91707.94;5071208;28;20193;-78
2021/12/03 04:27:10;;;;;;;10.33;9.83;;;;;;;8.25;65.02;91739.41;5070138;28;20217;-78
2021/12/03 04:29:36;;;;;;;10.10;9.50;;;;;;;8.46;64.92;91735.41;5072013;28;20196;-78
2021/12/03 04:32:02;;;;;;;10.27;9.67;;;;;;;8.42;62.98;91714.38;5070493;28;20217;-78
2021/12/03 04:34:28;;;;;;;10.30;9.53;;;;;;;8.60;63.08;91721.38;5071104;28;20185;-78
2021/12/03 04:36:53;;;;;;;9.43;8.93;;;;;;;8.58;62.27;91709.69;5071181;28;20229;-78
2021/12/03 04:39:19;;;;;;;10.60;10.00;;;;;;;8.68;62.13;91727.72;5070262;28;21068;-85
2021/12/03 04:41:45;;;;;;;10.37;9.87;;;;;;;8.84;62.57;91773.25;5071844;28;20227;-87
2021/12/03 04:44:10;;;;;;;10.73;10.17;;;;;;;7.89;62.71;91648.97;5070861;28;20201;-85
2021/12/03 04:46:35;;;;;;;9.40;8.87;;;;;;;8.59;63.30;91760.69;5068934;28;20221;-71
2021/12/03 04:49:01;;;;;;;10.47;9.73;;;;;;;9.41;60.49;91749.22;5067433;28;20257;-72
2021/12/03 04:51:27;;;;;;;9.07;8.67;;;;;;;9.02;61.84;91754.94;5068025;28;20229;-72
2021/12/03 04:53:52;;;;;;;9.80;9.37;;;;;;;8.85;63.50;91759.16;5069335;28;20200;-73
2021/12/03 04:56:18;;;;;;;9.97;9.47;;;;;;;8.65;63.58;91754.31;5068282;28;20193;-73
2021/12/03 04:58:43;;;;;;;8.90;8.50;;;;;;;8.75;63.45;91777.53;5068959;28;20202;-75
2021/12/03 05:01:10;;;;;;;9.53;9.03;;;;;;;9.17;61.27;91766.88;5068577;28;20237;-71
2021/12/03 05:03:37;;;;;;;9.83;9.33;;;;;;;8.78;62.11;91792.63;5067336;28;20217;-72
2021/12/03 05:06:03;;;;;;;10.50;9.73;;;;;;;8.64;62.28;91768.41;5070511;28;20189;-70
2021/12/03 05:08:30;;;;;;;10.33;9.80;;;;;;;8.84;61.91;91773.25;5070953;28;20189;-70
2021/12/03 05:10:57;;;;;;;10.03;9.43;;;;;;;9.17;60.45;91775.47;5070301;28;20216;-72
2021/12/03 05:13:32;;;;;;;10.60;10.00;;;;;;;9.00;60.96;91785.69;5072147;28;20332;-70
2021/12/03 05:15:58;;;;;;;10.70;9.60;;;;;;;8.60;63.38;91777.81;5067517;28;20196;-72
2021/12/03 05:18:27;;;;;;;10.90;10.10;;;;;;;8.58;63.72;91785.13;5068648;28;20227;-74
2021/12/03 05:20:54;;;;;;;9.27;8.83;;;;;;;8.74;63.82;91781.22;5070143;28;20253;-75
2021/12/03 05:23:21;;;;;;;10.73;9.93;;;;;;;9.18;61.23;91799.69;5067626;28;20286;-74
2021/12/03 05:25:47;;;;;;;11.30;10.60;;;;;;;9.13;60.69;91781.53;5070324;28;20189;-73
2021/12/03 05:28:14;;;;;;;11.47;10.67;;;;;;;8.67;63.27;91786.03;5069447;28;20305;-73
2021/12/03 05:30:39;;;;;;;9.77;9.17;;;;;;;9.00;60.66;91766.69;5068824;28;20193;-85
2021/12/03 05:33:06;;;;;;;11.37;10.47;;;;;;;9.57;59.68;91813.72;5069306;28;20323;-80
2021/12/03 05:35:32;;;;;;;10.43;9.93;;;;;;;9.75;59.94;91786.00;5067649;28;20203;-79
2021/12/03 05:37:58;;;;;;;10.27;9.57;;;;;;;9.76;59.86;91811.78;5069160;28;20288;-79
2021/12/03 05:40:24;;;;;;;10.37;9.50;;;;;;;9.46;61.02;91817.59;5069744;28;20190;-80
2021/12/03 05:42:49;;;;;;;10.33;9.73;;;;;;;9.44;61.68;91791.09;5070355;28;20221;-80
2021/12/03 05:45:22;;;;;;;9.93;9.13;;;;;;;9.58;61.42;91809.31;5069277;28;20205;-80
2021/12/03 05:47:47;;;;;;;12.20;11.10;;;;;;;9.45;61.46;91805.66;5068894;28;20251;-80
2021/12/03 05:50:15;;;;;;;12.50;11.53;;;;;;;9.52;60.81;91802.66;5069569;28;20189;-80
2021/12/03 05:52:40;;;;;;;11.83;10.73;;;;;;;9.46;61.50;91822.81;5067337;28;20213;-80
2021/12/03 05:55:07;;;;;;;10.30;9.77;;;;;;;9.25;61.28;91818.28;5065604;28;20189;-80
2021/12/03 05:57:33;;;;;;;11.30;10.60;;;;;;;9.68;59.27;91843.00;5067476;28;20228;-86
2021/12/03 05:59:58;;;;;;;12.00;11.00;;;;;;;9.30;59.04;91789.53;5066126;28;20190;-83
2021/12/03 06:02:24;;;;;;;11.27;10.47;;;;;;;9.24;60.19;91791.50;5069109;28;20221;-82
2021/12/03 06:04:49;;;;;;;10.77;10.10;;;;;;;9.52;60.70;91810.47;5065727;28;20197;-81
2021/12/03 06:07:15;;;;;;;11.40;10.63;;;;;;;9.54;61.32;91839.63;5066567;28;20273;-77
2021/12/03 06:09:42;;;;;;;10.93;10.33;;;;;;;9.66;60.98;91824.25;5067492;28;20195;-74
2021/12/03 06:12:08;;;;;;;10.13;9.53;;;;;;;9.74;61.55;91826.19;5066252;28;20224;-74
2021/12/03 06:14:34;;;;;;;10.33;9.70;;;;;;;9.40;61.09;91812.81;5067974;28;20187;-74
2021/12/03 06:16:59;;;;;;;10.70;9.90;;;;;;;9.53;60.62;91828.41;5068204;28;20253;-74
2021/12/03 06:19:25;;;;;;;9.90;9.50;;;;;;;9.55;61.29;91828.13;5067864;28;20208;-75
2021/12/03 06:21:51;;;;;;;9.87;9.00;;;;;;;9.73;61.62;91803.78;5068649;28;20236;-74
2021/12/03 06:24:16;;;;;;;9.50;8.67;;;;;;;9.84;61.02;91843.44;5069106;28;20204;-74
2021/12/03 06:26:41;;;;;;;10.07;9.30;;;;;;;10.08;59.54;91829.13;5068144;28;20225;-74
2021/12/03 06:29:07;;;;;;;10.30;9.50;;;;;;;9.98;60.25;91818.88;5070027;28;20201;-75
2021/12/03 06:31:33;;;;;;;8.93;8.23;;;;;;;9.64;60.08;91776.88;5068414;28;20225;-76
2021/12/03 06:34:00;;;;;;;11.40;9.60;;;;;;;9.81;60.31;91834.38;5069016;28;20198;-74
2021/12/03 06:36:25;;;;;;;10.77;9.67;;;;;;;9.60;61.19;91861.91;5068162;28;20240;-74
2021/12/03 06:38:51;;;;;;;10.97;10.17;;;;;;;9.54;61.38;91805.75;5077708;28;20173;-74
2021/12/03 06:41:16;;;;;;;10.40;9.53;;;;;;;9.33;62.70;91828.03;5068671;28;20201;-71
2021/12/03 06:43:41;;;;;;;8.67;8.27;;;;;;;9.52;62.04;91826.09;5068866;28;20216;-75
2021/12/03 06:46:07;;;;;;;9.60;8.80;;;;;;;9.92;60.29;91834.91;5065196;28;20224;-76
2021/12/03 06:48:32;;;;;;;9.23;8.43;;;;;;;10.31;58.93;91863.84;5069508;28;20198;-76
2021/12/03 06:50:58;;;;;;;10.40;9.40;;;;;;;9.94;61.30;91870.06;5068295;28;20213;-74
2021/12/03 06:53:27;;;;;;;9.20;8.70;;;;;;;9.87;60.23;91838.41;5068625;28;20255;-75
2021/12/03 06:56:44;;;;;;;9.23;8.73;;;;;;;10.04;59.86;91889.97;5064742;28;20261;-75
2021/12/03 06:58:38;;;;;;;9.37;8.87;;;;;;;9.51;61.35;91868.81;5059874;28;20282;-74
2021/12/03 07:01:04;;;;;;;9.93;9.43;;;;;;;9.11;62.38;91870.34;5064368;28;20221;-75
2021/12/03 07:03:29;;;;;;;11.10;10.07;;;;;;;9.47;62.46;91871.25;5065847;28;20228;-74
2021/12/03 07:05:55;;;;;;;12.60;10.40;;;;;;;9.66;62.64;91863.34;5066359;28;20232;-74
2021/12/03 07:08:20;;;;;;;9.77;9.27;;;;;;;10.14;60.08;91879.34;5067662;28;20232;-74
2021/12/03 07:10:46;;;;;;;9.03;8.57;;;;;;;10.28;59.84;91875.63;5067487;28;20251;-75
2021/12/03 07:13:11;;;;;;;9.63;9.23;;;;;;;10.41;59.13;91835.69;5068473;28;20308;-74
2021/12/03 07:15:37;;;;;;;9.07;8.57;;;;;;;10.65;59.19;91866.72;5064773;28;20249;-75
2021/12/03 07:18:03;;;;;;;10.63;10.03;;;;;;;10.50;60.76;91878.28;5065079;28;20328;-75
2021/12/03 07:20:28;;;;;;;11.80;10.67;;;;;;;10.10;61.19;91858.28;5066810;28;20208;-75
2021/12/03 07:22:54;;;;;;;9.90;9.23;;;;;;;10.42;59.96;91876.38;5065550;28;21854;-75
2021/12/03 07:25:21;;;;;;;9.27;8.60;;;;;;;10.59;59.19;91860.06;5066740;28;20186;-75
2021/12/03 07:27:46;;;;;;;10.67;9.97;;;;;;;10.42;59.79;91891.25;5064166;28;20223;-74
2021/12/03 07:30:13;;;;;;;9.57;8.67;;;;;;;10.56;59.98;91876.31;5067442;28;20237;-74
2021/12/03 07:32:39;;;;;;;9.43;8.77;;;;;;;10.63;59.80;91856.56;5066065;28;20241;-74
2021/12/03 07:35:06;;;;;;;9.77;9.27;;;;;;;11.22;57.53;91874.44;5070818;28;20195;-73
2021/12/03 07:37:31;;;;;;;10.03;9.50;;;;;;;11.14;58.15;91864.72;5070170;28;20220;-74
2021/12/03 07:40:03;;;;;;;9.30;8.60;;;;;;;11.05;58.72;91858.69;5067162;28;20201;-74
2021/12/03 07:42:28;;;;;;;10.53;10.03;;;;;;;11.19;58.86;91838.47;5068122;28;20225;-74
2021/12/03 07:44:54;;;;;;;10.20;9.47;;;;;;;11.24;58.38;91864.47;5069572;28;20208;-75
2021/12/03 07:47:19;;;;;;;9.80;9.20;;;;;;;11.24;57.81;91825.28;5064827;28;20217;-74
2021/12/03 07:49:47;;;;;;;11.17;8.77;;;;;;;11.50;56.78;91843.69;5070011;28;20218;-75
2021/12/03 07:52:15;;;;;;;10.03;9.33;;;;;;;11.47;57.55;91859.19;5059576;28;20234;-74
2021/12/03 07:54:41;;;;;;;9.53;8.93;;;;;;;11.39;57.29;91827.50;5051471;28;20194;-74
2021/12/03 07:57:07;;;;;;;10.43;8.73;;;;;;;11.48;56.39;91840.59;5058656;28;20244;-75
2021/12/03 07:59:32;;;;;;;10.13;9.30;;;;;;;11.51;56.14;91823.53;5069403;28;20205;-74
2021/12/03 08:01:58;;;;;;;10.57;9.50;;;;;;;11.69;57.99;91882.69;5063208;28;20313;-75
2021/12/03 08:04:23;;;;;;;8.97;8.30;;;;;;;11.79;57.28;91875.34;5051462;28;20217;-75
2021/12/03 08:06:52;;;;;;;10.27;9.20;;;;;;;11.95;55.74;91891.38;5057632;28;20244;-74
2021/12/03 08:09:18;;;;;;;9.97;9.27;;;;;;;11.87;56.05;91869.38;5068771;28;20197;-74
2021/12/03 08:11:44;;;;;;;9.93;9.10;;;;;;;11.98;55.52;91882.94;5069805;28;20230;-75
2021/12/03 08:14:09;;;;;;;9.43;8.83;;;;;;;11.90;56.04;91883.69;5069891;28;20186;-78
2021/12/03 08:16:34;;;;;;;9.60;8.90;;;;;;;12.05;56.13;91885.84;5070052;28;20232;-79
2021/12/03 08:19:00;;;;;;;9.37;8.50;;;;;;;11.74;56.21;91895.59;5070771;28;20208;-74
2021/12/03 08:21:25;;;;;;;9.07;8.47;;;;;;;11.64;55.92;91898.50;5068997;28;20237;-73
2021/12/03 08:23:51;;;;;;;10.13;9.40;;;;;;;11.79;56.25;91895.47;5070173;28;20225;-74
2021/12/03 08:26:17;;;;;;;9.50;8.80;;;;;;;11.79;55.83;91887.63;5067615;28;20205;-74
2021/12/03 08:28:43;;;;;;;9.40;8.80;;;;;;;11.89;55.30;91861.97;5070629;28;20187;-74
2021/12/03 08:31:14;;;;;;;9.20;8.53;;;;;;;11.74;55.74;91885.16;5068962;28;20190;-75
2021/12/03 08:33:40;;;;;;;9.93;9.17;;;;;;;11.81;55.83;91872.41;5070117;28;20195;-73
2021/12/03 08:36:05;;;;;;;9.30;8.60;;;;;;;11.98;54.95;91896.00;5067427;28;20975;-75
2021/12/03 08:38:31;;;;;;;9.50;8.83;;;;;;;11.88;55.21;91883.97;5078507;28;20190;-75
2021/12/03 08:40:56;;;;;;;10.77;7.70;;;;;;;11.94;55.77;91892.47;5069501;28;20233;-75
2021/12/03 08:43:22;;;;;;;11.00;9.33;;;;;;;11.81;55.22;91888.13;5066860;28;20232;-75
2021/12/03 08:45:53;;;;;;;8.53;8.13;;;;;;;11.94;55.69;91871.53;5070907;28;20284;-76
2021/12/03 08:48:18;;;;;;;9.57;8.63;;;;;;;12.05;54.88;91883.25;5069559;28;20931;-76
2021/12/03 08:56:24;;;;;;;8.90;7.93;;;;;;;11.97;55.53;91868.31;5069548;28;20308;-75
2021/12/03 08:58:50;;;;;;;9.60;8.70;;;;;;;11.91;55.28;91890.44;5066974;28;20189;-77
2021/12/03 09:01:15;;;;;;;9.63;8.70;;;;;;;12.15;55.26;91898.66;5069935;28;20228;-74
2021/12/03 09:03:41;;;;;;;9.57;8.83;;;;;;;12.09;54.41;91899.88;5068370;28;20280;-75
2021/12/03 09:06:06;;;;;;;8.10;7.73;;;;;;;11.87;54.73;91913.84;5069726;28;20245;-72
2021/12/03 09:08:32;;;;;;;9.27;8.40;;;;;;;11.71;54.15;91864.84;5065023;28;20205;-72
2021/12/03 09:10:57;;;;;;;8.97;8.47;;;;;;;12.03;54.53;91903.72;5067208;28;20198;-73
2021/12/03 09:13:24;;;;;;;10.57;8.30;;;;;;;11.88;55.59;91901.50;5069586;28;20217;-73
2021/12/03 09:16:15;;;;;;;10.00;9.17;;;;;;;11.83;54.77;91919.97;5069053;28;20228;-74
2021/12/03 09:18:38;;;;;;;9.23;8.73;;;;;;;11.83;55.19;91910.25;5048745;28;20225;-73
2021/12/03 09:26:04;;;;;;;9.90;8.93;;;;;;;11.56;54.93;91873.84;5068259;28;20190;-73
2021/12/03 09:28:31;;;;;;;9.97;9.10;;;;;;;11.76;55.60;91888.25;5065861;28;20801;-73
2021/12/03 09:30:56;;;;;;;9.27;8.43;;;;;;;11.57;54.99;91895.50;5069371;28;20184;-75
2021/12/03 09:33:26;;;;;;;10.77;8.43;;;;;;;11.54;55.17;91867.38;5066054;28;20235;-76
2021/12/03 09:35:54;;;;;;;12.13;9.37;;;;;;;11.68;54.98;91891.59;5067926;28;20207;-75
2021/12/03 09:38:19;;;;;;;9.80;9.03;;;;;;;11.76;53.97;91880.41;5068418;28;20221;-76
2021/12/03 09:40:46;;;;;;;13.03;9.90;;;;;;;11.75;54.03;91878.88;5065882;28;20205;-75
2021/12/03 09:43:11;;;;;;;8.80;8.40;;;;;;;11.69;53.72;91887.94;5066770;28;20225;-75
2021/12/03 09:45:38;;;;;;;10.17;9.47;;;;;;;11.91;53.93;91885.19;5067170;28;20196;-75
2021/12/03 09:48:28;;;;;;;10.87;9.20;;;;;;;11.59;54.78;91893.38;5066585;28;20237;-76
2021/12/03 09:50:54;;;;;;;10.20;9.30;;;;;;;11.78;53.29;91896.56;5068143;28;20206;-75
2021/12/03 09:55:48;;;;;;;8.53;7.83;;;;;;;11.77;53.30;91882.72;5067064;28;20210;-75
2021/12/03 10:01:03;;;;;;;10.27;9.37;;;;;;;12.07;52.73;91920.34;5069551;28;20240;-75
2021/12/03 10:13:07;;;;;;;9.53;8.67;;;;;;;12.11;52.76;91848.78;5066047;28;20238;-76
2021/12/03 10:15:07;;;;;;;10.00;9.10;;;;;;;12.11;52.84;91853.28;5058145;28;20197;-75
2021/12/03 10:17:48;;;;;;;9.47;8.60;;;;;;;12.05;51.44;91875.41;5065651;28;20240;-76
2021/12/03 10:20:35;;;;;;;12.10;8.33;;;;;;;12.17;51.95;91886.06;5068723;28;20198;-75
2021/12/03 10:44:57;;;;;;;10.00;9.10;;;;;;;12.79;51.27;91855.91;5066742;28;20788;-78
2021/12/03 10:50:11;;;;;;;9.67;8.77;;;;;;;12.91;50.20;91869.13;5066573;28;20194;-79
2021/12/03 11:44:44;;;;;;;9.07;8.37;;;;;;;12.46;51.69;91865.31;5069072;28;20213;-78
2021/12/03 12:02:15;;;;;;;8.90;8.13;;;;;;;12.60;50.59;91882.41;5070174;28;20225;-80
2021/12/03 12:17:07;;;;;;;9.40;8.70;;;;;;;12.67;51.03;91845.28;5045921;28;20826;-80
2021/12/03 12:25:10;;;;;;;11.60;9.37;;;;;;;12.48;50.33;91842.22;5070604;28;20220;-77
2021/12/03 12:43:15;;;;;;;9.57;8.90;;;;;;;12.12;52.21;91824.19;5050252;28;20239;-88
2021/12/03 13:19:04;;;;;;;9.97;9.10;;;;;;;12.12;52.10;91807.72;5048018;28;20233;-81
2021/12/03 14:34:24;;;;;;;10.00;9.00;;;;;;;12.00;51.09;91896.47;5068144;28;20320;-88
2021/12/03 14:38:38;;;;;;;10.03;9.17;;;;;;;11.62;51.57;91892.78;5068475;28;20224;-88
2021/12/03 14:57:28;;;;;;;10.40;9.40;;;;;;;11.67;53.55;91903.91;5061752;28;20249;-87
2021/12/03 15:00:15;;;;;;;10.27;9.33;;;;;;;11.52;52.72;91927.78;5071522;28;20193;-90
2021/12/03 15:29:29;;;;;;;10.63;9.57;;;;;;;11.22;57.43;91929.31;5071710;28;21728;-87
2021/12/03 15:31:50;;;;;;;12.07;11.13;;;;;;;10.91;57.28;91904.97;5070568;28;20231;-89
2021/12/03 16:03:42;;;;;;;10.97;9.93;;;;;;;10.78;54.19;91832.72;5070618;28;20225;-88
2021/12/03 16:08:38;;;;;;;12.10;10.90;;;;;;;11.48;54.62;91947.75;5069518;28;20281;-88
2021/12/03 16:11:22;;;;;;;13.43;11.47;;;;;;;11.08;56.26;91941.66;5070607;28;20205;-89
2021/12/03 16:14:00;;;;;;;13.30;11.20;;;;;;;11.10;57.22;91989.16;5068852;28;20202;-87
2021/12/03 16:17:13;;;;;;;12.17;11.13;;;;;;;10.81;58.66;91991.41;5067551;28;20224;-85
2021/12/03 16:54:06;;;;;;;15.23;13.67;;;;;;;9.95;66.80;92048.91;5068068;28;20201;-84
2021/12/03 16:56:32;;;;;;;16.23;13.10;;;;;;;10.11;65.95;92049.44;5068933;28;20221;-82
2021/12/03 16:58:59;;;;;;;18.47;14.33;;;;;;;9.82;66.68;92037.41;5068523;28;20196;-77
2021/12/03 17:56:54;;;;;;;12.07;11.27;;;;;;;7.26;77.82;92122.16;5068729;28;20227;-87
2021/12/03 17:59:24;;;;;;;14.10;11.97;;;;;;;7.20;77.96;92144.78;5069170;28;20211;-83
2021/12/03 18:01:54;;;;;;;11.17;10.37;;;;;;;7.01;78.55;92150.84;5069000;28;20244;-85
2021/12/03 18:04:34;;;;;;;12.43;11.63;;;;;;;6.81;78.73;92154.31;5066047;28;20260;-85
2021/12/03 18:07:09;;;;;;;10.83;10.03;;;;;;;6.44;79.88;92153.94;5067855;28;20231;-85
2021/12/03 18:18:01;;;;;;;12.27;11.57;;;;;;;6.32;80.84;92174.19;5063448;28;20229;-85
2021/12/03 18:55:35;;;;;;;11.60;10.80;;;;;;;5.55;86.38;92178.88;5067755;28;20224;-86
2021/12/03 18:58:04;;;;;;;12.33;11.53;;;;;;;5.70;86.22;92176.28;5067109;28;20229;-86
2021/12/03 19:00:34;;;;;;;11.77;11.07;;;;;;;5.52;88.30;92153.53;5067800;28;20225;-87
2021/12/03 19:03:06;;;;;;;12.40;11.60;;;;;;;5.12;87.14;92130.97;5066585;28;20225;-85
2021/12/03 19:05:55;;;;;;;12.57;11.87;;;;;;;5.03;88.78;92160.19;5068056;28;20212;-84
2021/12/03 19:11:07;;;;;;;11.47;10.77;;;;;;;4.75;88.83;92140.72;5067498;28;20253;-85
2021/12/03 19:13:40;;;;;;;13.07;12.17;;;;;;;5.01;89.68;92182.94;5068396;28;20196;-85
2021/12/03 19:16:11;;;;;;;12.80;12.00;;;;;;;5.01;89.25;92180.38;5067351;28;20197;-83
2021/12/03 19:18:43;;;;;;;12.23;11.43;;;;;;;5.24;89.72;92187.66;5068002;28;20181;-85
2021/12/03 19:21:11;;;;;;;10.23;9.73;;;;;;;5.16;88.17;92176.00;5067222;28;20232;-84